Hovedside
METAR-TAF:

METAR-TAF

Lufthavner :

Luena, Angola

breddegrad: 11-46-05S, lengdegrad: 19-53-50E, høyde over havet: 1329 m

Gjeldene værobservasjon

Denne rapporten ble laget for 10 timer og 57 minutter siden, klokken 09:00 UTC
Vind 8 kt fra Øst
Temperatur 30°C
Luftfuktighet 52%
Trykk 1021 hPa
Sikt 10 km eller mer
ingen skyer under 1500 m og ingen bygeskyer

METAR: FNUE 210900Z 09008KT CAVOK 30/19 Q1021

Tid: 20:57 (19:57 UTC)

Varsel

Denne rapporten ble laget for 9 timer og 2 minutter siden, klokken 10:55 UTC
Varsel gyldig fra 21. klokken 12 UTC til 21. klokken 24 UTC
Vind 10 kt fra Øst
Sikt 10 km eller mer
ingen skyer under 1500 m og ingen bygeskyer

TAF: FNUE 211055Z 2112/2124 10010KT CAVOK

Værobservasjoner og værvarsel for over 4000 flyplasser (METAR- og TAF-rapporter).

Tilgjengelige stasjoner er representert av de røde og gule prikkene på kartet.

Hold musepekeren over prikken for å se navnet på stasjonen.

Klikk så for å se værobservasjoner og -varsler.

For å forandre kartet kan du klikke på den grønne knappen med svart kryss for å zoome inn, på den grønne knappen med strek for å zoome ut, eller på de grønne pilene for å se tilstøtende kart.


METAR-TAF: